sensor_id;sensor_type;location;lat;lon;timestamp;temperature;humidity
12309;DHT22;6217;48.150;17.142;2023-04-03T00:02:18;8.50;67.30
12309;DHT22;6217;48.150;17.142;2023-04-03T00:06:24;8.40;67.20
12309;DHT22;6217;48.150;17.142;2023-04-03T00:10:30;8.40;67.40
12309;DHT22;6217;48.150;17.142;2023-04-03T00:14:36;8.50;67.30
12309;DHT22;6217;48.150;17.142;2023-04-03T00:18:42;8.50;67.30
12309;DHT22;6217;48.150;17.142;2023-04-03T00:22:48;8.50;67.30
12309;DHT22;6217;48.150;17.142;2023-04-03T00:26:54;8.50;67.40
12309;DHT22;6217;48.150;17.142;2023-04-03T00:31:04;8.50;67.40
12309;DHT22;6217;48.150;17.142;2023-04-03T00:35:10;8.50;67.60
12309;DHT22;6217;48.150;17.142;2023-04-03T00:39:17;8.50;67.70
12309;DHT22;6217;48.150;17.142;2023-04-03T00:43:24;8.50;67.80
12309;DHT22;6217;48.150;17.142;2023-04-03T00:47:32;8.50;67.60
12309;DHT22;6217;48.150;17.142;2023-04-03T00:51:38;8.50;67.80
12309;DHT22;6217;48.150;17.142;2023-04-03T00:55:44;8.50;67.80
12309;DHT22;6217;48.150;17.142;2023-04-03T00:59:55;8.40;68.00
12309;DHT22;6217;48.150;17.142;2023-04-03T01:04:05;8.30;68.10
12309;DHT22;6217;48.150;17.142;2023-04-03T01:08:12;8.30;68.20
12309;DHT22;6217;48.150;17.142;2023-04-03T01:12:23;8.40;68.10
12309;DHT22;6217;48.150;17.142;2023-04-03T01:16:39;8.30;68.10
12309;DHT22;6217;48.150;17.142;2023-04-03T01:25:09;8.20;68.40
12309;DHT22;6217;48.150;17.142;2023-04-03T01:29:15;8.10;68.30
12309;DHT22;6217;48.150;17.142;2023-04-03T01:33:22;8.10;68.30
12309;DHT22;6217;48.150;17.142;2023-04-03T01:37:31;8.10;68.60
12309;DHT22;6217;48.150;17.142;2023-04-03T01:41:37;8.10;68.50
12309;DHT22;6217;48.150;17.142;2023-04-03T01:45:58;8.00;68.60
12309;DHT22;6217;48.150;17.142;2023-04-03T01:50:04;7.80;68.60
12309;DHT22;6217;48.150;17.142;2023-04-03T01:54:12;7.70;68.70
12309;DHT22;6217;48.150;17.142;2023-04-03T01:58:18;7.70;68.90
12309;DHT22;6217;48.150;17.142;2023-04-03T02:02:27;7.70;68.90
12309;DHT22;6217;48.150;17.142;2023-04-03T02:06:33;7.60;68.70
12309;DHT22;6217;48.150;17.142;2023-04-03T02:10:40;7.50;68.70
12309;DHT22;6217;48.150;17.142;2023-04-03T02:14:46;7.50;68.70
12309;DHT22;6217;48.150;17.142;2023-04-03T02:18:52;7.60;68.40
12309;DHT22;6217;48.150;17.142;2023-04-03T02:22:58;7.60;68.70
12309;DHT22;6217;48.150;17.142;2023-04-03T02:27:05;7.60;68.60
12309;DHT22;6217;48.150;17.142;2023-04-03T02:31:11;7.60;68.60
12309;DHT22;6217;48.150;17.142;2023-04-03T02:35:19;7.60;68.80
12309;DHT22;6217;48.150;17.142;2023-04-03T02:39:26;7.60;68.70
12309;DHT22;6217;48.150;17.142;2023-04-03T02:43:33;7.60;68.50
12309;DHT22;6217;48.150;17.142;2023-04-03T02:47:39;7.60;68.70
12309;DHT22;6217;48.150;17.142;2023-04-03T02:51:45;7.60;68.40
12309;DHT22;6217;48.150;17.142;2023-04-03T02:55:52;7.50;68.40
12309;DHT22;6217;48.150;17.142;2023-04-03T02:59:58;7.50;68.50
12309;DHT22;6217;48.150;17.142;2023-04-03T03:04:04;7.60;68.60
12309;DHT22;6217;48.150;17.142;2023-04-03T03:08:10;7.80;68.20
12309;DHT22;6217;48.150;17.142;2023-04-03T03:12:16;7.80;67.90
12309;DHT22;6217;48.150;17.142;2023-04-03T03:16:26;7.80;68.10
12309;DHT22;6217;48.150;17.142;2023-04-03T03:20:32;7.80;68.10
12309;DHT22;6217;48.150;17.142;2023-04-03T03:24:38;7.70;68.50
12309;DHT22;6217;48.150;17.142;2023-04-03T03:28:44;7.60;68.40
12309;DHT22;6217;48.150;17.142;2023-04-03T03:32:51;7.60;68.50
12309;DHT22;6217;48.150;17.142;2023-04-03T03:36:57;7.70;68.40
12309;DHT22;6217;48.150;17.142;2023-04-03T03:41:03;7.70;67.90
12309;DHT22;6217;48.150;17.142;2023-04-03T03:45:11;7.70;68.00
12309;DHT22;6217;48.150;17.142;2023-04-03T03:49:17;7.70;67.90
12309;DHT22;6217;48.150;17.142;2023-04-03T03:53:23;7.70;67.60
12309;DHT22;6217;48.150;17.142;2023-04-03T03:57:33;7.60;67.70
12309;DHT22;6217;48.150;17.142;2023-04-03T04:01:39;7.60;67.70
12309;DHT22;6217;48.150;17.142;2023-04-03T04:05:46;7.60;68.60
12309;DHT22;6217;48.150;17.142;2023-04-03T04:09:52;7.60;68.10
12309;DHT22;6217;48.150;17.142;2023-04-03T04:13:58;7.60;68.10
12309;DHT22;6217;48.150;17.142;2023-04-03T04:18:07;7.80;68.20
12309;DHT22;6217;48.150;17.142;2023-04-03T04:22:14;7.80;67.70
12309;DHT22;6217;48.150;17.142;2023-04-03T04:26:20;7.80;67.70
12309;DHT22;6217;48.150;17.142;2023-04-03T04:30:27;7.70;67.90
12309;DHT22;6217;48.150;17.142;2023-04-03T04:34:35;7.60;68.10
12309;DHT22;6217;48.150;17.142;2023-04-03T04:38:42;7.60;68.30
12309;DHT22;6217;48.150;17.142;2023-04-03T04:42:48;7.50;68.40
12309;DHT22;6217;48.150;17.142;2023-04-03T04:46:55;7.50;68.50
12309;DHT22;6217;48.150;17.142;2023-04-03T04:51:02;7.50;68.20
12309;DHT22;6217;48.150;17.142;2023-04-03T04:55:08;7.50;68.40
12309;DHT22;6217;48.150;17.142;2023-04-03T04:59:14;7.50;68.30
12309;DHT22;6217;48.150;17.142;2023-04-03T05:03:21;7.40;68.30
12309;DHT22;6217;48.150;17.142;2023-04-03T05:07:27;7.40;68.50
12309;DHT22;6217;48.150;17.142;2023-04-03T05:11:34;7.40;68.50
12309;DHT22;6217;48.150;17.142;2023-04-03T05:15:41;7.60;68.50
12309;DHT22;6217;48.150;17.142;2023-04-03T05:19:47;7.60;68.10
12309;DHT22;6217;48.150;17.142;2023-04-03T05:23:54;7.70;68.00
12309;DHT22;6217;48.150;17.142;2023-04-03T05:28:01;7.80;68.00
12309;DHT22;6217;48.150;17.142;2023-04-03T05:32:07;7.80;67.70
12309;DHT22;6217;48.150;17.142;2023-04-03T05:36:13;8.00;67.70
12309;DHT22;6217;48.150;17.142;2023-04-03T05:40:23;8.20;67.50
12309;DHT22;6217;48.150;17.142;2023-04-03T05:44:33;8.20;67.00
12309;DHT22;6217;48.150;17.142;2023-04-03T05:48:39;8.10;66.80
12309;DHT22;6217;48.150;17.142;2023-04-03T05:52:48;8.20;67.00
12309;DHT22;6217;48.150;17.142;2023-04-03T05:56:56;8.30;67.20
12309;DHT22;6217;48.150;17.142;2023-04-03T06:01:03;8.40;67.20
12309;DHT22;6217;48.150;17.142;2023-04-03T06:05:11;8.60;67.80
12309;DHT22;6217;48.150;17.142;2023-04-03T06:09:20;8.80;67.10
12309;DHT22;6217;48.150;17.142;2023-04-03T06:13:28;8.70;66.30
12309;DHT22;6217;48.150;17.142;2023-04-03T06:17:34;8.60;66.30
12309;DHT22;6217;48.150;17.142;2023-04-03T06:21:40;8.50;66.00
12309;DHT22;6217;48.150;17.142;2023-04-03T06:25:46;8.50;65.90
12309;DHT22;6217;48.150;17.142;2023-04-03T06:29:52;8.40;65.80
12309;DHT22;6217;48.150;17.142;2023-04-03T06:33:58;8.40;65.60
12309;DHT22;6217;48.150;17.142;2023-04-03T06:38:04;8.40;65.40
12309;DHT22;6217;48.150;17.142;2023-04-03T06:42:14;8.40;65.00
12309;DHT22;6217;48.150;17.142;2023-04-03T06:46:31;8.50;65.40
12309;DHT22;6217;48.150;17.142;2023-04-03T06:50:37;8.80;64.30
12309;DHT22;6217;48.150;17.142;2023-04-03T06:54:43;8.80;62.50
12309;DHT22;6217;48.150;17.142;2023-04-03T06:58:49;9.00;62.90
12309;DHT22;6217;48.150;17.142;2023-04-03T07:02:56;9.40;62.70
12309;DHT22;6217;48.150;17.142;2023-04-03T07:07:03;9.40;61.40
12309;DHT22;6217;48.150;17.142;2023-04-03T07:11:10;9.60;61.20
12309;DHT22;6217;48.150;17.142;2023-04-03T07:15:16;9.60;60.70
12309;DHT22;6217;48.150;17.142;2023-04-03T07:19:22;9.60;59.80
12309;DHT22;6217;48.150;17.142;2023-04-03T07:23:30;9.50;59.40
12309;DHT22;6217;48.150;17.142;2023-04-03T07:27:36;9.30;59.00
12309;DHT22;6217;48.150;17.142;2023-04-03T07:31:42;9.20;58.60
12309;DHT22;6217;48.150;17.142;2023-04-03T07:35:50;9.30;58.40
12309;DHT22;6217;48.150;17.142;2023-04-03T07:39:56;9.20;57.80
12309;DHT22;6217;48.150;17.142;2023-04-03T07:44:04;9.30;57.70
12309;DHT22;6217;48.150;17.142;2023-04-03T07:48:11;9.40;57.10
12309;DHT22;6217;48.150;17.142;2023-04-03T07:52:17;9.20;54.90
12309;DHT22;6217;48.150;17.142;2023-04-03T07:56:23;8.90;53.70
12309;DHT22;6217;48.150;17.142;2023-04-03T08:00:30;8.70;53.50
12309;DHT22;6217;48.150;17.142;2023-04-03T08:04:36;8.80;54.00
12309;DHT22;6217;48.150;17.142;2023-04-03T08:08:42;8.90;53.70
12309;DHT22;6217;48.150;17.142;2023-04-03T08:12:48;9.00;53.40
12309;DHT22;6217;48.150;17.142;2023-04-03T08:16:56;8.90;52.50
12309;DHT22;6217;48.150;17.142;2023-04-03T08:21:08;8.80;52.90
12309;DHT22;6217;48.150;17.142;2023-04-03T08:25:14;9.00;52.90
12309;DHT22;6217;48.150;17.142;2023-04-03T08:29:21;9.40;53.30
12309;DHT22;6217;48.150;17.142;2023-04-03T08:33:27;9.60;53.00
12309;DHT22;6217;48.150;17.142;2023-04-03T08:37:35;9.50;51.40
12309;DHT22;6217;48.150;17.142;2023-04-03T08:41:43;9.50;51.40
12309;DHT22;6217;48.150;17.142;2023-04-03T08:45:55;9.60;51.20
12309;DHT22;6217;48.150;17.142;2023-04-03T08:50:06;9.60;50.90
12309;DHT22;6217;48.150;17.142;2023-04-03T08:54:24;9.60;50.80
12309;DHT22;6217;48.150;17.142;2023-04-03T08:58:42;9.50;50.20
12309;DHT22;6217;48.150;17.142;2023-04-03T09:02:55;9.90;51.20
12309;DHT22;6217;48.150;17.142;2023-04-03T09:07:11;10.20;51.30
12309;DHT22;6217;48.150;17.142;2023-04-03T09:11:47;10.40;50.70
12309;DHT22;6217;48.150;17.142;2023-04-03T09:15:57;10.50;48.90
12309;DHT22;6217;48.150;17.142;2023-04-03T09:24:45;10.10;48.10
12309;DHT22;6217;48.150;17.142;2023-04-03T09:29:00;10.00;46.90
12309;DHT22;6217;48.150;17.142;2023-04-03T09:33:10;9.90;46.90
12309;DHT22;6217;48.150;17.142;2023-04-03T09:42:05;9.70;46.60
12309;DHT22;6217;48.150;17.142;2023-04-03T09:46:25;9.30;45.30
12309;DHT22;6217;48.150;17.142;2023-04-03T09:50:35;9.30;46.30
12309;DHT22;6217;48.150;17.142;2023-04-03T09:54:42;9.30;44.90
12309;DHT22;6217;48.150;17.142;2023-04-03T09:59:07;9.50;45.90
12309;DHT22;6217;48.150;17.142;2023-04-03T10:03:28;9.70;46.60
12309;DHT22;6217;48.150;17.142;2023-04-03T10:07:38;9.80;46.10
12309;DHT22;6217;48.150;17.142;2023-04-03T10:16:18;9.90;47.10
12309;DHT22;6217;48.150;17.142;2023-04-03T10:29:09;9.70;46.20
12309;DHT22;6217;48.150;17.142;2023-04-03T10:38:24;9.70;45.80
12309;DHT22;6217;48.150;17.142;2023-04-03T10:42:39;9.90;46.00
12309;DHT22;6217;48.150;17.142;2023-04-03T10:46:58;9.80;45.50
12309;DHT22;6217;48.150;17.142;2023-04-03T10:56:10;9.80;45.40
12309;DHT22;6217;48.150;17.142;2023-04-03T11:00:30;9.50;44.00
12309;DHT22;6217;48.150;17.142;2023-04-03T11:04:39;9.40;44.20
12309;DHT22;6217;48.150;17.142;2023-04-03T11:09:07;9.50;44.80
12309;DHT22;6217;48.150;17.142;2023-04-03T11:18:02;9.40;44.10
12309;DHT22;6217;48.150;17.142;2023-04-03T11:22:27;9.00;43.20
12309;DHT22;6217;48.150;17.142;2023-04-03T11:26:39;8.80;43.10
12309;DHT22;6217;48.150;17.142;2023-04-03T11:30:49;8.80;43.60
12309;DHT22;6217;48.150;17.142;2023-04-03T11:35:01;8.80;43.80
12309;DHT22;6217;48.150;17.142;2023-04-03T11:39:29;9.00;44.10
12309;DHT22;6217;48.150;17.142;2023-04-03T11:43:56;9.00;44.10
12309;DHT22;6217;48.150;17.142;2023-04-03T11:56:47;9.30;43.80
12309;DHT22;6217;48.150;17.142;2023-04-03T12:05:27;9.40;43.80
12309;DHT22;6217;48.150;17.142;2023-04-03T12:09:57;9.30;43.40
12309;DHT22;6217;48.150;17.142;2023-04-03T12:14:04;9.40;44.00
12309;DHT22;6217;48.150;17.142;2023-04-03T12:23:35;9.40;43.40
12309;DHT22;6217;48.150;17.142;2023-04-03T12:27:43;9.30;43.30
12309;DHT22;6217;48.150;17.142;2023-04-03T12:45:29;9.10;42.10
12309;DHT22;6217;48.150;17.142;2023-04-03T12:49:46;8.90;42.80
12309;DHT22;6217;48.150;17.142;2023-04-03T12:54:03;8.80;42.90
12309;DHT22;6217;48.150;17.142;2023-04-03T12:58:28;8.90;43.10
12309;DHT22;6217;48.150;17.142;2023-04-03T13:02:36;9.00;43.00
12309;DHT22;6217;48.150;17.142;2023-04-03T13:06:43;9.10;43.20
12309;DHT22;6217;48.150;17.142;2023-04-03T13:10:56;9.10;42.70
12309;DHT22;6217;48.150;17.142;2023-04-03T13:15:29;9.20;42.60
12309;DHT22;6217;48.150;17.142;2023-04-03T13:19:36;9.30;43.10
12309;DHT22;6217;48.150;17.142;2023-04-03T13:23:45;9.20;42.70
12309;DHT22;6217;48.150;17.142;2023-04-03T13:27:54;9.20;42.50
12309;DHT22;6217;48.150;17.142;2023-04-03T13:32:02;9.10;42.50
12309;DHT22;6217;48.150;17.142;2023-04-03T13:36:21;8.90;41.30
12309;DHT22;6217;48.150;17.142;2023-04-03T13:40:30;8.80;41.20
12309;DHT22;6217;48.150;17.142;2023-04-03T13:44:37;8.70;41.50
12309;DHT22;6217;48.150;17.142;2023-04-03T13:48:47;8.80;41.80
12309;DHT22;6217;48.150;17.142;2023-04-03T13:53:02;9.00;42.20
12309;DHT22;6217;48.150;17.142;2023-04-03T13:57:17;9.20;42.20
12309;DHT22;6217;48.150;17.142;2023-04-03T14:01:24;9.20;42.10
12309;DHT22;6217;48.150;17.142;2023-04-03T14:05:30;9.10;41.90
12309;DHT22;6217;48.150;17.142;2023-04-03T14:09:37;9.00;41.50
12309;DHT22;6217;48.150;17.142;2023-04-03T14:13:43;8.90;42.30
12309;DHT22;6217;48.150;17.142;2023-04-03T14:17:51;9.00;42.10
12309;DHT22;6217;48.150;17.142;2023-04-03T14:21:58;9.00;41.70
12309;DHT22;6217;48.150;17.142;2023-04-03T14:26:29;8.70;40.70
12309;DHT22;6217;48.150;17.142;2023-04-03T14:30:35;8.70;41.20
12309;DHT22;6217;48.150;17.142;2023-04-03T14:35:07;8.60;41.20
12309;DHT22;6217;48.150;17.142;2023-04-03T14:39:17;8.80;41.50
12309;DHT22;6217;48.150;17.142;2023-04-03T14:43:24;8.70;41.10
12309;DHT22;6217;48.150;17.142;2023-04-03T14:47:30;8.70;40.90
12309;DHT22;6217;48.150;17.142;2023-04-03T14:51:36;8.60;40.90
12309;DHT22;6217;48.150;17.142;2023-04-03T14:55:45;8.70;41.20
12309;DHT22;6217;48.150;17.142;2023-04-03T14:59:52;8.70;41.30
12309;DHT22;6217;48.150;17.142;2023-04-03T15:03:58;8.70;41.50
12309;DHT22;6217;48.150;17.142;2023-04-03T15:08:04;8.60;40.80
12309;DHT22;6217;48.150;17.142;2023-04-03T15:12:10;8.40;40.50
12309;DHT22;6217;48.150;17.142;2023-04-03T15:16:18;8.40;40.60
12309;DHT22;6217;48.150;17.142;2023-04-03T15:20:26;8.40;40.80
12309;DHT22;6217;48.150;17.142;2023-04-03T15:24:33;8.50;40.30
12309;DHT22;6217;48.150;17.142;2023-04-03T15:28:41;8.30;40.00
12309;DHT22;6217;48.150;17.142;2023-04-03T15:32:47;8.30;40.50
12309;DHT22;6217;48.150;17.142;2023-04-03T15:36:54;8.40;41.00
12309;DHT22;6217;48.150;17.142;2023-04-03T15:41:00;8.50;40.90
12309;DHT22;6217;48.150;17.142;2023-04-03T15:45:07;8.40;40.60
12309;DHT22;6217;48.150;17.142;2023-04-03T15:49:14;8.30;40.40
12309;DHT22;6217;48.150;17.142;2023-04-03T15:53:20;8.30;40.50
12309;DHT22;6217;48.150;17.142;2023-04-03T15:57:26;8.20;40.30
12309;DHT22;6217;48.150;17.142;2023-04-03T16:01:32;8.20;40.50
12309;DHT22;6217;48.150;17.142;2023-04-03T16:05:41;8.20;40.20
12309;DHT22;6217;48.150;17.142;2023-04-03T16:09:47;8.10;40.10
12309;DHT22;6217;48.150;17.142;2023-04-03T16:13:55;8.00;40.20
12309;DHT22;6217;48.150;17.142;2023-04-03T16:18:01;8.00;40.50
12309;DHT22;6217;48.150;17.142;2023-04-03T16:22:07;8.00;40.50
12309;DHT22;6217;48.150;17.142;2023-04-03T16:26:13;7.90;40.70
12309;DHT22;6217;48.150;17.142;2023-04-03T16:30:20;7.90;41.00
12309;DHT22;6217;48.150;17.142;2023-04-03T16:34:26;7.80;40.90
12309;DHT22;6217;48.150;17.142;2023-04-03T16:38:32;7.80;40.90
12309;DHT22;6217;48.150;17.142;2023-04-03T16:42:38;7.60;40.70
12309;DHT22;6217;48.150;17.142;2023-04-03T16:46:44;7.50;41.00
12309;DHT22;6217;48.150;17.142;2023-04-03T16:50:53;7.50;41.30
12309;DHT22;6217;48.150;17.142;2023-04-03T16:54:59;7.50;41.20
12309;DHT22;6217;48.150;17.142;2023-04-03T16:59:05;7.40;41.20
12309;DHT22;6217;48.150;17.142;2023-04-03T17:03:11;7.40;41.50
12309;DHT22;6217;48.150;17.142;2023-04-03T17:07:21;7.30;41.50
12309;DHT22;6217;48.150;17.142;2023-04-03T17:11:28;7.20;41.50
12309;DHT22;6217;48.150;17.142;2023-04-03T17:15:35;7.10;41.50
12309;DHT22;6217;48.150;17.142;2023-04-03T17:19:42;7.10;41.70
12309;DHT22;6217;48.150;17.142;2023-04-03T17:23:55;7.00;41.80
12309;DHT22;6217;48.150;17.142;2023-04-03T17:28:03;7.00;42.00
12309;DHT22;6217;48.150;17.142;2023-04-03T17:32:08;7.00;41.90
12309;DHT22;6217;48.150;17.142;2023-04-03T17:36:14;6.80;41.70
12309;DHT22;6217;48.150;17.142;2023-04-03T17:40:20;6.80;42.10
12309;DHT22;6217;48.150;17.142;2023-04-03T17:44:26;6.80;42.20
12309;DHT22;6217;48.150;17.142;2023-04-03T17:48:33;6.80;42.30
12309;DHT22;6217;48.150;17.142;2023-04-03T17:52:40;6.90;42.40
12309;DHT22;6217;48.150;17.142;2023-04-03T17:56:46;6.80;42.40
12309;DHT22;6217;48.150;17.142;2023-04-03T18:00:56;6.80;42.40
12309;DHT22;6217;48.150;17.142;2023-04-03T18:05:03;6.70;42.50
12309;DHT22;6217;48.150;17.142;2023-04-03T18:09:15;6.70;42.60
12309;DHT22;6217;48.150;17.142;2023-04-03T18:13:26;6.70;42.70
12309;DHT22;6217;48.150;17.142;2023-04-03T18:17:33;6.60;42.70
12309;DHT22;6217;48.150;17.142;2023-04-03T18:21:39;6.60;42.80
12309;DHT22;6217;48.150;17.142;2023-04-03T18:25:45;6.60;43.00
12309;DHT22;6217;48.150;17.142;2023-04-03T18:29:59;6.50;43.00
12309;DHT22;6217;48.150;17.142;2023-04-03T18:34:08;6.50;43.00
12309;DHT22;6217;48.150;17.142;2023-04-03T18:38:14;6.50;43.10
12309;DHT22;6217;48.150;17.142;2023-04-03T18:42:23;6.40;43.10
12309;DHT22;6217;48.150;17.142;2023-04-03T18:46:31;6.30;43.10
12309;DHT22;6217;48.150;17.142;2023-04-03T18:50:37;6.30;43.20
12309;DHT22;6217;48.150;17.142;2023-04-03T18:54:43;6.20;43.10
12309;DHT22;6217;48.150;17.142;2023-04-03T18:58:49;6.20;43.20
12309;DHT22;6217;48.150;17.142;2023-04-03T19:02:56;6.20;43.30
12309;DHT22;6217;48.150;17.142;2023-04-03T19:07:02;6.20;43.40
12309;DHT22;6217;48.150;17.142;2023-04-03T19:11:10;6.20;43.40
12309;DHT22;6217;48.150;17.142;2023-04-03T19:15:18;6.20;43.30
12309;DHT22;6217;48.150;17.142;2023-04-03T19:19:26;6.20;43.40
12309;DHT22;6217;48.150;17.142;2023-04-03T19:23:31;6.10;43.50
12309;DHT22;6217;48.150;17.142;2023-04-03T19:27:38;6.10;43.60
12309;DHT22;6217;48.150;17.142;2023-04-03T19:31:44;6.10;43.60
12309;DHT22;6217;48.150;17.142;2023-04-03T19:35:50;6.10;43.80
12309;DHT22;6217;48.150;17.142;2023-04-03T19:39:57;6.00;43.70
12309;DHT22;6217;48.150;17.142;2023-04-03T19:44:04;6.00;43.90
12309;DHT22;6217;48.150;17.142;2023-04-03T19:48:11;6.00;43.90
12309;DHT22;6217;48.150;17.142;2023-04-03T19:52:18;6.00;44.00
12309;DHT22;6217;48.150;17.142;2023-04-03T19:56:24;6.00;44.00
12309;DHT22;6217;48.150;17.142;2023-04-03T20:00:31;6.00;44.10
12309;DHT22;6217;48.150;17.142;2023-04-03T20:04:36;6.00;44.10
12309;DHT22;6217;48.150;17.142;2023-04-03T20:08:42;6.00;44.20
12309;DHT22;6217;48.150;17.142;2023-04-03T20:12:49;5.90;44.30
12309;DHT22;6217;48.150;17.142;2023-04-03T20:16:55;5.80;44.40
12309;DHT22;6217;48.150;17.142;2023-04-03T20:21:03;5.80;44.50
12309;DHT22;6217;48.150;17.142;2023-04-03T20:25:11;5.80;44.50
12309;DHT22;6217;48.150;17.142;2023-04-03T20:29:18;5.70;44.50
12309;DHT22;6217;48.150;17.142;2023-04-03T20:33:27;5.70;44.80
12309;DHT22;6217;48.150;17.142;2023-04-03T20:37:34;5.60;44.90
12309;DHT22;6217;48.150;17.142;2023-04-03T20:41:40;5.60;45.00
12309;DHT22;6217;48.150;17.142;2023-04-03T20:45:46;5.60;45.10
12309;DHT22;6217;48.150;17.142;2023-04-03T20:49:52;5.60;45.20
12309;DHT22;6217;48.150;17.142;2023-04-03T20:53:58;5.60;45.30
12309;DHT22;6217;48.150;17.142;2023-04-03T20:58:11;5.50;45.40
12309;DHT22;6217;48.150;17.142;2023-04-03T21:02:18;5.50;45.60
12309;DHT22;6217;48.150;17.142;2023-04-03T21:20:38;5.40;45.80
12309;DHT22;6217;48.150;17.142;2023-04-03T21:24:44;5.30;45.70
12309;DHT22;6217;48.150;17.142;2023-04-03T21:28:50;5.20;46.00
12309;DHT22;6217;48.150;17.142;2023-04-03T21:32:57;5.20;46.20
12309;DHT22;6217;48.150;17.142;2023-04-03T21:37:06;5.10;46.30
12309;DHT22;6217;48.150;17.142;2023-04-03T21:41:13;5.00;46.60
12309;DHT22;6217;48.150;17.142;2023-04-03T21:45:20;5.00;46.70
12309;DHT22;6217;48.150;17.142;2023-04-03T21:49:26;5.10;46.60
12309;DHT22;6217;48.150;17.142;2023-04-03T21:53:32;5.10;46.70
12309;DHT22;6217;48.150;17.142;2023-04-03T21:57:38;5.00;46.70
12309;DHT22;6217;48.150;17.142;2023-04-03T22:01:45;5.00;46.90
12309;DHT22;6217;48.150;17.142;2023-04-03T22:05:51;5.00;46.90
12309;DHT22;6217;48.150;17.142;2023-04-03T22:09:58;4.90;46.90
12309;DHT22;6217;48.150;17.142;2023-04-03T22:14:04;4.90;47.00
12309;DHT22;6217;48.150;17.142;2023-04-03T22:18:10;4.80;47.10
12309;DHT22;6217;48.150;17.142;2023-04-03T22:22:16;4.80;47.10
12309;DHT22;6217;48.150;17.142;2023-04-03T22:26:22;4.70;47.20
12309;DHT22;6217;48.150;17.142;2023-04-03T22:30:28;4.70;47.30
12309;DHT22;6217;48.150;17.142;2023-04-03T22:34:34;4.70;47.40
12309;DHT22;6217;48.150;17.142;2023-04-03T22:38:47;4.70;47.50
12309;DHT22;6217;48.150;17.142;2023-04-03T22:42:52;4.60;47.60
12309;DHT22;6217;48.150;17.142;2023-04-03T22:46:58;4.60;47.60
12309;DHT22;6217;48.150;17.142;2023-04-03T22:51:05;4.60;47.70
12309;DHT22;6217;48.150;17.142;2023-04-03T22:55:14;4.60;47.70
12309;DHT22;6217;48.150;17.142;2023-04-03T22:59:21;4.60;47.70
12309;DHT22;6217;48.150;17.142;2023-04-03T23:03:30;4.60;48.20
12309;DHT22;6217;48.150;17.142;2023-04-03T23:07:36;4.60;47.70
12309;DHT22;6217;48.150;17.142;2023-04-03T23:11:43;4.60;47.80
12309;DHT22;6217;48.150;17.142;2023-04-03T23:15:57;4.50;47.80
12309;DHT22;6217;48.150;17.142;2023-04-03T23:20:05;4.50;47.90
12309;DHT22;6217;48.150;17.142;2023-04-03T23:24:11;4.50;48.00
12309;DHT22;6217;48.150;17.142;2023-04-03T23:28:18;4.40;48.10
12309;DHT22;6217;48.150;17.142;2023-04-03T23:32:24;4.30;48.20
12309;DHT22;6217;48.150;17.142;2023-04-03T23:36:30;4.30;48.30
12309;DHT22;6217;48.150;17.142;2023-04-03T23:40:36;4.30;48.40
12309;DHT22;6217;48.150;17.142;2023-04-03T23:44:42;4.20;48.50
12309;DHT22;6217;48.150;17.142;2023-04-03T23:48:48;4.20;48.70
12309;DHT22;6217;48.150;17.142;2023-04-03T23:52:54;4.20;48.80
12309;DHT22;6217;48.150;17.142;2023-04-03T23:57:00;4.20;48.80
